Palermo, New York
Current Conditions -  °F | °C
As of 7:31 AM on Friday 28 Nov 2014 (Local Time) from KFZY Reporting Station
Light Snow Light Snow  
Wind Chill: 19°   Ceiling: 700
Heat Index: 27°   Visibility: 1mi
Dew Point: 24°   Wind: 8mph
Humidity: 89%   Direction: 290°WNW
Pressure: 30.17"   Gusts: NA
Location:  43.3608°N, 76.3536°W
Report Text: KFZY 281231Z AUTO 29007KT 1SM -SN BR VV007 M03/M04 A3017 RMK AO2 P0003 T10281044
Loading
Personal Weather Stations






























Interactive Weather Map New forecast layout! Learn more

10-Day Weather Forecast

Advertisements
Track Severe Weather on mobile